Time;durP1;ratioP1;P1;durP2;ratioP2;P2;SDS_P1;SDS_P2;PMS_P1;PMS_P2;Temp;Humidity;BMP_temperature;BMP_pressure;BME280_temperature;BME280_humidity;BME280_pressure;Samples;Min_cycle;Max_cycle;Signal;HPM_P1;HPM_P2
2021/09/25 00:01:44;;;;;;;1.83;1.45;;;13.30;76.30;;;;;;5014771;28;20025;-64
2021/09/25 00:04:10;;;;;;;1.70;1.52;;;13.30;76.30;;;;;;5015162;28;20026;-64
2021/09/25 00:06:36;;;;;;;1.52;1.42;;;13.30;76.30;;;;;;5014675;28;20087;-64
2021/09/25 00:09:02;;;;;;;2.67;1.48;;;13.30;76.20;;;;;;5015096;28;20033;-64
2021/09/25 00:11:29;;;;;;;1.40;1.30;;;13.30;76.40;;;;;;5014965;28;20026;-64
2021/09/25 00:13:57;;;;;;;1.40;1.30;;;13.20;76.20;;;;;;5014000;28;20032;-64
2021/09/25 00:16:26;;;;;;;1.55;1.45;;;13.20;76.40;;;;;;5014365;28;20053;-64
2021/09/25 00:18:57;;;;;;;2.35;1.60;;;13.20;76.40;;;;;;4994909;28;20063;-64
2021/09/25 00:21:24;;;;;;;1.80;1.65;;;13.20;76.40;;;;;;4994918;28;20022;-64
2021/09/25 00:23:50;;;;;;;1.58;1.33;;;13.20;76.30;;;;;;4993807;28;20104;-64
2021/09/25 00:26:15;;;;;;;3.03;1.60;;;13.20;76.40;;;;;;5005073;28;20496;-64
2021/09/25 00:28:41;;;;;;;1.05;1.05;;;13.20;76.50;;;;;;5014643;28;20030;-64
2021/09/25 00:31:07;;;;;;;2.67;1.60;;;13.20;76.40;;;;;;5013989;28;20037;-64
2021/09/25 00:33:33;;;;;;;2.50;1.35;;;13.30;76.60;;;;;;5014727;28;20045;-64
2021/09/25 00:35:58;;;;;;;1.95;1.52;;;13.30;76.50;;;;;;4997779;28;20470;-64
2021/09/25 00:38:24;;;;;;;1.60;1.33;;;13.30;76.50;;;;;;4994805;28;20038;-64
2021/09/25 00:40:50;;;;;;;2.28;1.50;;;13.30;76.40;;;;;;4994872;28;20030;-64
2021/09/25 00:43:16;;;;;;;1.70;1.60;;;13.30;76.40;;;;;;4994840;28;20030;-64
2021/09/25 00:45:41;;;;;;;1.77;1.50;;;13.30;76.40;;;;;;5004711;28;20018;-64
2021/09/25 00:48:07;;;;;;;1.90;1.50;;;13.30;76.40;;;;;;5013925;28;20040;-64
2021/09/25 00:50:33;;;;;;;2.30;1.60;;;13.30;76.40;;;;;;5014507;28;20064;-64
2021/09/25 00:52:59;;;;;;;1.60;1.50;;;13.30;76.50;;;;;;5014559;28;20486;-64
2021/09/25 00:55:25;;;;;;;0.95;0.95;;;13.30;76.40;;;;;;5013748;28;20381;-64
2021/09/25 00:57:58;;;;;;;2.72;1.52;;;13.30;76.40;;;;;;5014272;28;20026;-64
2021/09/25 01:00:23;;;;;;;1.40;1.20;;;13.30;76.50;;;;;;5014759;28;20101;-64
2021/09/25 01:02:49;;;;;;;1.40;1.30;;;13.30;76.40;;;;;;5013697;28;20149;-64
2021/09/25 01:05:16;;;;;;;2.78;1.48;;;13.30;76.30;;;;;;5014058;28;20034;-64
2021/09/25 01:07:42;;;;;;;2.83;1.70;;;13.30;76.40;;;;;;5014031;28;20021;-64
2021/09/25 01:10:08;;;;;;;1.85;1.70;;;13.30;76.50;;;;;;5014304;28;20018;-64
2021/09/25 01:12:34;;;;;;;1.92;1.35;;;13.30;76.50;;;;;;5013918;28;20030;-64
2021/09/25 01:15:00;;;;;;;1.17;1.13;;;13.20;76.60;;;;;;5014084;28;20382;-64
2021/09/25 01:17:25;;;;;;;1.60;1.33;;;13.30;76.60;;;;;;5014245;28;20034;-64
2021/09/25 01:19:51;;;;;;;1.25;1.20;;;13.20;76.50;;;;;;5013044;28;20026;-64
2021/09/25 01:22:17;;;;;;;1.80;1.65;;;13.20;76.50;;;;;;5014065;28;20088;-64
2021/09/25 01:24:43;;;;;;;2.85;1.33;;;13.20;76.60;;;;;;5009543;28;20034;-64
2021/09/25 01:27:09;;;;;;;1.90;1.70;;;13.20;76.60;;;;;;4994710;28;20512;-64
2021/09/25 01:29:35;;;;;;;2.08;1.52;;;13.20;76.70;;;;;;4994215;28;20098;-64
2021/09/25 01:32:03;;;;;;;3.45;1.50;;;13.20;76.80;;;;;;4994635;28;20038;-64
2021/09/25 01:34:29;;;;;;;3.00;1.65;;;13.10;76.80;;;;;;4999111;28;20030;-64
2021/09/25 01:36:56;;;;;;;1.70;1.52;;;13.10;77.00;;;;;;5010369;28;20506;-64
2021/09/25 01:39:22;;;;;;;1.67;1.58;;;13.10;76.90;;;;;;5013319;28;20042;-64
2021/09/25 01:41:48;;;;;;;2.58;1.70;;;13.10;77.10;;;;;;5013608;28;20041;-64
2021/09/25 01:44:13;;;;;;;1.30;1.20;;;13.00;77.00;;;;;;5013784;28;20076;-64
2021/09/25 01:46:39;;;;;;;1.63;1.42;;;13.00;77.20;;;;;;5015400;28;20065;-64
2021/09/25 01:49:06;;;;;;;2.60;1.60;;;13.00;77.10;;;;;;5017509;28;20032;-64
2021/09/25 01:51:31;;;;;;;1.42;1.35;;;13.00;77.30;;;;;;5017130;28;20030;-64
2021/09/25 01:53:57;;;;;;;1.45;1.35;;;13.00;77.30;;;;;;5017849;28;20033;-64
2021/09/25 01:56:23;;;;;;;2.00;1.48;;;13.00;77.50;;;;;;5001001;28;20386;-64
2021/09/25 01:58:49;;;;;;;1.85;1.63;;;13.00;77.40;;;;;;4997800;28;20026;-64
2021/09/25 02:01:14;;;;;;;2.70;1.63;;;13.00;77.60;;;;;;5006854;28;20022;-64
2021/09/25 02:03:40;;;;;;;2.97;1.30;;;13.00;77.60;;;;;;5017193;28;20026;-64
2021/09/25 02:06:08;;;;;;;1.20;1.20;;;13.00;77.60;;;;;;5016948;28;20029;-64
2021/09/25 02:08:36;;;;;;;1.40;1.30;;;13.00;77.60;;;;;;5015914;28;20067;-64
2021/09/25 02:11:02;;;;;;;1.40;1.30;;;13.00;77.60;;;;;;5006076;28;20449;-64
2021/09/25 02:13:28;;;;;;;1.55;1.45;;;13.00;77.70;;;;;;5003938;28;20058;-64
2021/09/25 02:15:54;;;;;;;2.63;1.65;;;13.00;77.80;;;;;;4997374;28;20473;-64
2021/09/25 02:18:20;;;;;;;1.23;1.20;;;13.00;77.90;;;;;;4997188;28;20030;-64
2021/09/25 02:20:45;;;;;;;1.42;1.33;;;13.00;77.80;;;;;;4997138;28;20029;-64
2021/09/25 02:23:11;;;;;;;1.50;1.40;;;13.00;77.80;;;;;;4997449;28;20023;-64
2021/09/25 02:25:38;;;;;;;2.13;1.65;;;13.00;77.90;;;;;;4998606;28;20073;-64
2021/09/25 02:28:04;;;;;;;2.78;1.60;;;13.00;77.90;;;;;;4997196;28;20026;-64
2021/09/25 02:30:29;;;;;;;1.48;1.23;;;13.10;77.90;;;;;;4997182;28;20097;-64
2021/09/25 02:32:55;;;;;;;1.73;1.63;;;13.10;78.00;;;;;;5012535;28;20077;-64
2021/09/25 02:35:24;;;;;;;2.38;2.10;;;13.10;78.10;;;;;;4997447;28;20037;-64
2021/09/25 02:37:52;;;;;;;2.15;1.70;;;13.10;78.00;;;;;;4996918;28;20022;-64
2021/09/25 02:40:18;;;;;;;1.88;1.52;;;13.10;78.00;;;;;;4996811;28;20074;-64
2021/09/25 02:42:44;;;;;;;2.97;1.73;;;13.10;78.10;;;;;;5012700;28;20061;-64
2021/09/25 02:45:12;;;;;;;2.17;1.80;;;13.10;78.00;;;;;;5016483;28;20072;-64
2021/09/25 02:47:38;;;;;;;2.28;1.85;;;13.10;78.10;;;;;;5016380;28;20034;-64
2021/09/25 02:50:05;;;;;;;2.78;1.90;;;13.10;78.10;;;;;;5016421;28;20029;-64
2021/09/25 02:52:31;;;;;;;3.03;2.15;;;13.10;78.30;;;;;;5014960;28;20018;-64
2021/09/25 02:54:56;;;;;;;2.47;1.90;;;13.10;78.40;;;;;;5005519;28;20036;-64
2021/09/25 02:57:22;;;;;;;2.67;2.08;;;13.10;78.30;;;;;;5015633;28;20033;-64
2021/09/25 02:59:48;;;;;;;2.88;1.92;;;13.10;78.30;;;;;;5015337;28;20030;-64
2021/09/25 03:02:13;;;;;;;5.45;2.30;;;13.10;78.30;;;;;;5015758;28;20025;-64
2021/09/25 03:04:39;;;;;;;2.88;2.00;;;13.10;78.30;;;;;;5015995;28;20028;-64
2021/09/25 03:07:07;;;;;;;2.65;2.20;;;13.10;78.30;;;;;;5016025;28;20072;-64
2021/09/25 03:09:33;;;;;;;3.25;1.83;;;13.10;78.30;;;;;;5016190;28;20034;-64
2021/09/25 03:11:58;;;;;;;3.25;2.15;;;13.10;78.30;;;;;;5015666;28;20092;-64
2021/09/25 03:14:24;;;;;;;1.77;1.67;;;13.10;78.40;;;;;;5015658;28;20032;-64
2021/09/25 03:16:50;;;;;;;2.30;1.70;;;13.10;78.40;;;;;;5015689;28;20057;-64
2021/09/25 03:19:15;;;;;;;2.60;1.55;;;13.10;78.40;;;;;;4996262;28;20041;-64
2021/09/25 03:21:41;;;;;;;2.30;1.70;;;13.10;78.50;;;;;;4996366;28;20120;-64
2021/09/25 03:24:07;;;;;;;1.55;1.45;;;13.20;78.50;;;;;;4995834;28;20023;-64
2021/09/25 03:26:33;;;;;;;2.67;1.65;;;13.20;78.40;;;;;;4996023;28;20026;-64
2021/09/25 03:28:58;;;;;;;3.47;2.20;;;13.20;78.40;;;;;;4996136;28;20030;-64
2021/09/25 03:31:24;;;;;;;2.97;1.92;;;13.20;78.40;;;;;;5000835;28;20466;-64
2021/09/25 03:33:50;;;;;;;3.10;2.08;;;13.20;78.40;;;;;;5005583;28;20030;-64
2021/09/25 03:36:15;;;;;;;3.20;1.90;;;13.20;78.30;;;;;;5015350;28;20084;-64
2021/09/25 03:38:41;;;;;;;1.73;1.63;;;13.20;78.30;;;;;;5014817;28;20049;-64
2021/09/25 03:41:07;;;;;;;2.10;1.75;;;13.20;78.40;;;;;;5015336;28;20018;-64
2021/09/25 03:43:33;;;;;;;1.70;1.60;;;13.20;78.30;;;;;;5015006;28;20033;-64
2021/09/25 03:45:59;;;;;;;4.10;1.98;;;13.20;78.30;;;;;;5015136;28;20066;-64
2021/09/25 03:48:25;;;;;;;1.70;1.50;;;13.20;78.30;;;;;;5014657;28;20109;-64
2021/09/25 03:50:53;;;;;;;8.98;1.90;;;13.20;78.30;;;;;;5014252;28;20109;-64
2021/09/25 03:53:19;;;;;;;2.53;2.00;;;13.20;78.30;;;;;;5014945;28;20022;-64
2021/09/25 03:55:45;;;;;;;2.28;1.80;;;13.20;78.40;;;;;;5015044;28;20052;-64
2021/09/25 03:58:11;;;;;;;1.92;1.80;;;13.20;78.30;;;;;;5014782;28;20104;-64
2021/09/25 04:00:42;;;;;;;2.70;2.20;;;13.20;78.30;;;;;;5014987;28;20109;-64
2021/09/25 04:03:09;;;;;;;;;;;13.30;78.20;;;;;;5015145;28;20478;-64
2021/09/25 04:05:34;;;;;;;3.38;1.58;;;13.20;78.20;;;;;;5014794;28;19910;-64
2021/09/25 04:08:00;;;;;;;3.70;1.77;;;13.20;78.10;;;;;;5014644;28;20029;-64
2021/09/25 04:10:26;;;;;;;1.77;1.67;;;13.20;78.10;;;;;;5000637;28;20061;-64
2021/09/25 04:12:51;;;;;;;1.70;1.60;;;13.20;78.10;;;;;;4994952;28;20061;-64
2021/09/25 04:15:17;;;;;;;4.40;2.03;;;13.20;78.10;;;;;;4994998;28;20031;-64
2021/09/25 04:17:43;;;;;;;3.28;1.60;;;13.20;78.10;;;;;;5000540;28;20481;-64
2021/09/25 04:20:09;;;;;;;1.60;1.50;;;13.20;78.30;;;;;;5014497;28;20034;-64
2021/09/25 04:22:34;;;;;;;1.92;1.58;;;13.20;78.00;;;;;;5014346;28;20386;-64
2021/09/25 04:25:00;;;;;;;3.78;1.67;;;13.20;78.10;;;;;;5014075;28;20024;-64
2021/09/25 04:27:29;;;;;;;2.60;1.75;;;13.20;78.00;;;;;;5014347;28;20469;-64
2021/09/25 04:29:58;;;;;;;2.75;1.65;;;13.30;78.00;;;;;;5014537;28;20393;-64
2021/09/25 04:32:24;;;;;;;2.15;1.85;;;13.30;78.10;;;;;;5014285;28;20076;-64
2021/09/25 04:34:50;;;;;;;1.92;1.83;;;13.30;78.10;;;;;;5014543;28;20026;-64
2021/09/25 04:37:15;;;;;;;2.00;1.80;;;13.30;78.20;;;;;;5014198;28;20057;-64
2021/09/25 04:39:41;;;;;;;3.67;2.05;;;13.40;78.10;;;;;;5013750;28;20053;-64
2021/09/25 04:42:07;;;;;;;1.85;1.75;;;13.30;78.00;;;;;;5013551;28;20025;-64
2021/09/25 04:44:32;;;;;;;2.65;2.03;;;13.30;78.10;;;;;;5013178;28;20031;-64
2021/09/25 04:46:58;;;;;;;1.50;1.40;;;13.40;78.00;;;;;;4994326;28;20027;-64
2021/09/25 04:49:24;;;;;;;1.60;1.50;;;13.40;77.80;;;;;;5013984;28;20087;-64
2021/09/25 04:51:49;;;;;;;2.85;2.00;;;13.40;77.90;;;;;;5014060;28;20108;-64
2021/09/25 04:54:15;;;;;;;2.10;1.63;;;13.40;77.90;;;;;;5013903;28;20101;-64
2021/09/25 04:56:41;;;;;;;1.80;1.67;;;13.40;77.90;;;;;;5013960;28;20044;-64
2021/09/25 04:59:06;;;;;;;2.17;1.98;;;13.40;78.00;;;;;;5013527;28;20025;-64
2021/09/25 05:01:32;;;;;;;2.30;1.48;;;13.50;77.90;;;;;;5013912;28;20022;-64
2021/09/25 05:04:01;;;;;;;2.78;1.83;;;13.50;77.80;;;;;;5013949;28;20029;-64
2021/09/25 05:06:28;;;;;;;1.83;1.50;;;13.50;77.80;;;;;;5013744;28;20033;-64
2021/09/25 05:08:53;;;;;;;2.10;1.65;;;13.60;77.80;;;;;;5013674;28;20049;-64
2021/09/25 05:11:19;;;;;;;1.80;1.60;;;13.60;77.70;;;;;;5013774;28;20065;-64
2021/09/25 05:13:45;;;;;;;2.10;1.88;;;13.60;77.60;;;;;;5013617;28;20363;-64
2021/09/25 05:16:10;;;;;;;1.98;1.73;;;13.60;77.70;;;;;;5013445;28;20030;-64
2021/09/25 05:18:37;;;;;;;2.70;2.00;;;13.70;77.60;;;;;;5000298;28;20093;-64
2021/09/25 05:21:03;;;;;;;3.10;1.70;;;13.70;77.50;;;;;;4998240;28;20109;-64
2021/09/25 05:23:28;;;;;;;2.28;1.52;;;13.80;77.50;;;;;;5017382;28;20065;-64
2021/09/25 05:25:54;;;;;;;2.97;1.70;;;13.80;77.40;;;;;;5017605;28;20028;-64
2021/09/25 05:28:20;;;;;;;1.90;1.77;;;13.90;77.20;;;;;;5017545;28;20068;-64
2021/09/25 05:30:46;;;;;;;2.50;1.50;;;14.00;77.50;;;;;;5017156;28;20520;-64
2021/09/25 05:33:11;;;;;;;3.80;1.88;;;14.00;77.00;;;;;;5016702;28;20025;-64
2021/09/25 05:35:37;;;;;;;2.22;1.33;;;14.10;77.00;;;;;;5017016;28;20370;-64
2021/09/25 05:38:03;;;;;;;1.63;1.52;;;14.10;76.70;;;;;;5017017;28;20108;-64
2021/09/25 05:40:29;;;;;;;3.28;2.00;;;14.20;76.60;;;;;;5017071;28;20430;-66
2021/09/25 05:42:54;;;;;;;2.35;1.65;;;14.30;76.60;;;;;;5017065;28;20033;-64
2021/09/25 05:45:20;;;;;;;2.38;1.65;;;14.30;77.10;;;;;;5016984;28;20237;-64
2021/09/25 05:47:46;;;;;;;2.45;1.63;;;14.40;76.30;;;;;;5008438;28;20022;-64
2021/09/25 05:50:13;;;;;;;2.85;1.42;;;14.40;76.10;;;;;;5005145;28;20112;-64
2021/09/25 05:52:39;;;;;;;2.40;1.80;;;14.40;75.90;;;;;;5014693;28;20033;-64
2021/09/25 05:55:07;;;;;;;2.17;1.88;;;14.50;75.90;;;;;;5014512;28;20026;-64
2021/09/25 05:57:32;;;;;;;3.35;2.45;;;14.50;75.70;;;;;;5017314;28;20033;-64
2021/09/25 05:59:58;;;;;;;5.18;3.80;;;14.50;75.50;;;;;;5016610;28;20030;-64
2021/09/25 06:02:24;;;;;;;4.05;2.20;;;14.50;75.50;;;;;;5016323;28;20030;-64
2021/09/25 06:04:50;;;;;;;2.00;1.80;;;14.50;75.70;;;;;;5013425;28;20030;-64
2021/09/25 06:07:15;;;;;;;1.33;1.33;;;14.60;75.60;;;;;;5016769;28;20018;-64
2021/09/25 06:09:42;;;;;;;3.30;1.90;;;14.60;75.50;;;;;;5015406;28;20033;-64
2021/09/25 06:12:08;;;;;;;1.73;1.58;;;14.60;75.40;;;;;;5016270;28;20493;-64
2021/09/25 06:14:34;;;;;;;1.83;1.70;;;14.70;75.30;;;;;;5016382;28;20057;-64
2021/09/25 06:17:00;;;;;;;2.75;1.90;;;14.80;75.20;;;;;;5013166;28;20109;-64
2021/09/25 06:19:26;;;;;;;4.20;1.80;;;14.80;75.20;;;;;;4996954;28;20113;-64
2021/09/25 06:21:53;;;;;;;4.35;2.28;;;14.90;75.20;;;;;;5008872;28;20026;-66
2021/09/25 06:24:18;;;;;;;2.13;1.73;;;15.00;75.10;;;;;;5016300;28;20030;-64
2021/09/25 06:26:45;;;;;;;4.00;2.17;;;15.10;74.70;;;;;;5016266;28;20101;-64
2021/09/25 06:29:11;;;;;;;2.08;1.77;;;15.10;74.50;;;;;;5016198;28;20445;-64
2021/09/25 06:31:37;;;;;;;2.88;1.90;;;15.10;74.50;;;;;;5016144;28;20025;-64
2021/09/25 06:34:03;;;;;;;2.45;1.83;;;15.20;74.50;;;;;;4997489;28;20039;-64
2021/09/25 06:36:29;;;;;;;4.43;1.88;;;15.20;74.30;;;;;;5012875;28;20029;-64
2021/09/25 06:38:54;;;;;;;2.35;2.15;;;15.20;74.20;;;;;;5013089;28;20486;-64
2021/09/25 06:41:21;;;;;;;2.53;1.60;;;15.20;74.30;;;;;;5013990;28;20022;-64
2021/09/25 06:43:46;;;;;;;5.30;2.00;;;15.30;74.20;;;;;;5014046;28;20072;-64
2021/09/25 06:46:13;;;;;;;3.15;1.75;;;15.30;74.20;;;;;;5014156;28;20021;-64
2021/09/25 06:48:40;;;;;;;2.92;1.60;;;15.40;74.10;;;;;;5013259;28;20124;-64
2021/09/25 06:51:06;;;;;;;1.70;1.60;;;15.50;74.00;;;;;;5014680;28;20026;-64
2021/09/25 06:53:32;;;;;;;1.70;1.60;;;15.50;73.50;;;;;;5015122;28;20049;-64
2021/09/25 06:55:58;;;;;;;2.92;1.88;;;15.60;73.50;;;;;;5013987;28;20393;-64
2021/09/25 06:58:23;;;;;;;3.05;2.00;;;15.70;73.60;;;;;;5013602;28;20092;-64
2021/09/25 07:00:50;;;;;;;2.15;1.83;;;15.70;73.30;;;;;;5014269;28;20422;-64
2021/09/25 07:03:17;;;;;;;2.45;2.08;;;15.80;73.00;;;;;;5015035;28;20466;-64
2021/09/25 07:05:43;;;;;;;2.63;1.83;;;15.80;72.70;;;;;;5013761;28;20066;-64
2021/09/25 07:08:09;;;;;;;2.75;2.17;;;15.80;72.40;;;;;;5015156;28;20061;-64
2021/09/25 07:10:36;;;;;;;2.67;2.03;;;15.80;72.20;;;;;;5014955;28;20021;-64
2021/09/25 07:13:03;;;;;;;2.85;2.10;;;15.80;72.00;;;;;;5015352;28;20461;-64
2021/09/25 07:15:30;;;;;;;2.58;2.03;;;15.80;72.00;;;;;;5006164;28;20042;-64
2021/09/25 07:17:55;;;;;;;2.65;1.98;;;15.80;71.90;;;;;;4998543;28;20033;-64
2021/09/25 07:20:21;;;;;;;3.67;2.08;;;15.80;71.80;;;;;;5003733;28;20473;-64
2021/09/25 07:22:51;;;;;;;2.33;2.13;;;15.70;71.60;;;;;;4997047;28;20117;-64
2021/09/25 07:25:17;;;;;;;5.05;2.30;;;15.70;71.70;;;;;;5008103;28;20031;-64
2021/09/25 07:27:43;;;;;;;4.35;2.10;;;15.70;71.80;;;;;;4997253;28;20022;-64
2021/09/25 07:30:10;;;;;;;2.17;1.92;;;15.70;71.60;;;;;;4999145;28;20458;-64
2021/09/25 07:32:35;;;;;;;2.08;1.88;;;15.70;71.90;;;;;;5012200;28;20040;-64
2021/09/25 07:35:01;;;;;;;2.20;2.00;;;15.70;71.70;;;;;;5011788;28;20026;-64
2021/09/25 07:37:27;;;;;;;3.03;2.17;;;15.80;71.60;;;;;;5011704;28;20063;-64
2021/09/25 07:39:52;;;;;;;1.95;1.83;;;15.80;71.50;;;;;;5013476;28;20398;-64
2021/09/25 07:42:20;;;;;;;4.00;2.17;;;15.90;72.10;;;;;;5012067;28;20416;-64
2021/09/25 07:44:47;;;;;;;2.55;2.10;;;16.00;71.00;;;;;;5001445;28;20058;-64
2021/09/25 07:47:13;;;;;;;2.45;2.20;;;16.00;70.80;;;;;;5015073;28;20030;-64
2021/09/25 07:49:39;;;;;;;3.00;2.00;;;16.00;70.80;;;;;;5014720;28;20036;-64
2021/09/25 07:52:05;;;;;;;2.28;2.10;;;16.00;70.60;;;;;;5014334;28;20105;-64
2021/09/25 07:54:31;;;;;;;2.42;2.03;;;16.00;70.50;;;;;;5014490;28;20026;-64
2021/09/25 07:56:56;;;;;;;5.32;2.17;;;16.00;70.70;;;;;;5014303;28;20091;-64
2021/09/25 07:59:22;;;;;;;3.22;2.15;;;16.00;70.70;;;;;;5010996;28;20029;-66
2021/09/25 08:01:48;;;;;;;2.45;2.25;;;16.10;70.60;;;;;;5014170;28;20018;-64
2021/09/25 08:04:14;;;;;;;2.72;1.83;;;16.10;70.50;;;;;;5014296;28;20033;-64
2021/09/25 08:06:39;;;;;;;2.42;1.73;;;16.10;70.50;;;;;;5014077;28;20068;-64
2021/09/25 08:09:05;;;;;;;2.00;1.90;;;16.10;70.50;;;;;;5014155;28;20026;-64
2021/09/25 08:11:31;;;;;;;2.10;1.90;;;16.10;70.60;;;;;;5013857;28;20025;-64
2021/09/25 08:13:56;;;;;;;2.25;2.00;;;16.10;70.50;;;;;;5013984;28;20029;-64
2021/09/25 08:16:22;;;;;;;2.08;1.90;;;16.10;70.40;;;;;;5012538;28;20025;-64
2021/09/25 08:18:49;;;;;;;2.97;2.10;;;16.20;70.40;;;;;;4994191;28;20375;-64
2021/09/25 08:21:15;;;;;;;2.25;1.85;;;16.20;70.40;;;;;;4994640;28;20050;-64
2021/09/25 08:23:40;;;;;;;3.28;2.00;;;16.30;70.40;;;;;;4994147;28;20026;-64
2021/09/25 08:26:06;;;;;;;2.28;2.00;;;16.30;70.20;;;;;;4994332;28;20022;-64
2021/09/25 08:28:32;;;;;;;2.05;1.92;;;16.30;70.20;;;;;;4994218;28;20374;-64
2021/09/25 08:30:57;;;;;;;2.30;2.10;;;16.30;69.90;;;;;;4994171;28;20037;-64
2021/09/25 08:33:23;;;;;;;2.90;2.10;;;16.40;69.70;;;;;;4994268;28;20049;-64
2021/09/25 08:35:49;;;;;;;2.78;1.90;;;16.40;69.40;;;;;;4998162;28;20385;-64
2021/09/25 08:38:14;;;;;;;2.53;1.83;;;16.40;69.20;;;;;;4993734;28;20042;-64
2021/09/25 08:40:40;;;;;;;2.17;1.98;;;16.40;69.50;;;;;;4994242;28;20489;-64
2021/09/25 08:43:06;;;;;;;2.03;1.75;;;16.50;69.50;;;;;;4993991;28;20157;-64
2021/09/25 08:45:32;;;;;;;2.40;2.20;;;16.60;69.50;;;;;;5002739;28;20022;-64
2021/09/25 08:47:58;;;;;;;2.83;2.60;;;16.70;69.40;;;;;;5013260;28;20033;-64
2021/09/25 08:50:25;;;;;;;2.80;2.60;;;16.70;69.10;;;;;;5013058;28;20038;-64
2021/09/25 08:52:50;;;;;;;3.40;2.78;;;16.70;68.90;;;;;;5013469;28;20030;-64
2021/09/25 08:55:17;;;;;;;4.10;2.88;;;16.70;68.80;;;;;;5013077;28;20041;-64
2021/09/25 08:57:42;;;;;;;3.47;2.60;;;16.70;68.70;;;;;;4999765;28;20042;-64
2021/09/25 09:00:48;;;;;;;5.05;3.00;;;16.70;68.90;;;;;;4993802;28;20042;-64
2021/09/25 09:03:22;;;;;;;2.60;2.40;;;16.60;68.90;;;;;;4993990;28;20019;-64
2021/09/25 09:05:53;;;;;;;2.67;2.47;;;16.60;69.20;;;;;;4993918;28;20018;-64
2021/09/25 09:08:19;;;;;;;4.40;3.10;;;16.60;69.10;;;;;;4994090;28;20385;-64
2021/09/25 09:10:45;;;;;;;2.97;2.50;;;16.70;69.20;;;;;;4993726;28;20101;-64
2021/09/25 09:13:10;;;;;;;7.95;2.50;;;16.70;69.00;;;;;;4993681;28;20061;-64
2021/09/25 09:15:38;;;;;;;2.78;2.28;;;16.80;68.60;;;;;;4993625;28;20022;-64
2021/09/25 09:18:15;;;;;;;2.88;2.30;;;16.80;68.50;;;;;;4993870;28;20027;-64
2021/09/25 09:21:05;;;;;;;2.85;2.28;;;16.80;68.30;;;;;;4993764;28;20030;-64
2021/09/25 09:23:33;;;;;;;3.15;2.30;;;16.90;68.20;;;;;;4994031;28;20034;-64
2021/09/25 09:25:59;;;;;;;2.20;2.10;;;16.90;67.90;;;;;;4993638;28;20096;-64
2021/09/25 09:28:29;;;;;;;3.38;2.55;;;17.00;67.70;;;;;;4993946;28;20033;-64
2021/09/25 09:30:58;;;;;;;2.30;2.10;;;17.00;67.60;;;;;;4993621;28;20069;-64
2021/09/25 09:33:35;;;;;;;2.60;2.40;;;17.10;67.60;;;;;;4993479;28;20019;-64
2021/09/25 09:36:11;;;;;;;3.05;2.80;;;17.20;67.30;;;;;;4994683;28;20054;-64
2021/09/25 09:38:39;;;;;;;3.25;2.95;;;17.20;67.00;;;;;;5009347;28;20038;-64
2021/09/25 09:41:05;;;;;;;3.08;2.80;;;17.20;66.70;;;;;;5013466;28;20435;-64
2021/09/25 09:43:30;;;;;;;2.80;2.60;;;17.20;66.70;;;;;;5013254;28;20104;-65
2021/09/25 09:45:59;;;;;;;2.83;2.63;;;17.20;66.60;;;;;;5012899;28;20072;-64
2021/09/25 09:48:25;;;;;;;2.58;2.40;;;17.20;66.50;;;;;;4995715;28;20470;-64
2021/09/25 09:50:52;;;;;;;2.85;2.55;;;17.20;66.70;;;;;;4993313;28;20037;-64
2021/09/25 09:53:18;;;;;;;2.80;2.20;;;17.10;66.90;;;;;;4994245;28;20064;-64
2021/09/25 09:55:43;;;;;;;2.58;2.47;;;17.10;66.90;;;;;;5013054;28;20548;-64
2021/09/25 09:58:09;;;;;;;2.40;2.20;;;17.20;66.70;;;;;;5012723;28;20465;-64
2021/09/25 10:00:36;;;;;;;2.40;2.20;;;17.20;66.80;;;;;;5012893;28;20097;-64
2021/09/25 10:03:03;;;;;;;2.45;2.25;;;17.30;66.70;;;;;;5012882;28;20029;-64
2021/09/25 10:05:29;;;;;;;2.10;2.00;;;17.30;66.50;;;;;;5012898;28;20113;-64
2021/09/25 10:07:55;;;;;;;3.75;2.45;;;17.30;66.50;;;;;;5014764;28;20145;-64
2021/09/25 10:10:23;;;;;;;5.03;2.20;;;17.30;66.40;;;;;;5015633;28;20038;-64
2021/09/25 10:12:49;;;;;;;3.70;1.77;;;17.30;66.50;;;;;;5016306;28;20026;-64
2021/09/25 10:15:14;;;;;;;2.30;1.60;;;17.30;66.30;;;;;;5010497;28;20029;-64
2021/09/25 10:17:42;;;;;;;1.75;1.65;;;17.40;66.20;;;;;;5012034;28;20060;-64
2021/09/25 10:20:09;;;;;;;1.30;1.20;;;17.40;66.00;;;;;;5016014;28;20428;-64
2021/09/25 10:22:36;;;;;;;1.60;1.50;;;17.40;66.10;;;;;;5005710;28;20037;-64
2021/09/25 10:25:08;;;;;;;2.10;1.42;;;17.40;66.10;;;;;;5010427;28;20026;-64
2021/09/25 10:27:41;;;;;;;1.60;1.50;;;17.40;66.30;;;;;;5013261;28;20090;-64
2021/09/25 10:30:10;;;;;;;3.42;1.58;;;17.40;66.10;;;;;;5014632;28;20432;-64
2021/09/25 10:32:51;;;;;;;1.88;1.40;;;17.40;66.20;;;;;;5021405;28;20026;-64
2021/09/25 10:35:23;;;;;;;2.58;1.25;;;17.40;66.10;;;;;;5020737;28;20525;-64
2021/09/25 10:38:01;;;;;;;2.80;1.80;;;17.50;66.10;;;;;;5008978;28;20065;-64
2021/09/25 10:40:28;;;;;;;1.38;1.27;;;17.40;66.00;;;;;;5008847;28;20037;-64
2021/09/25 10:42:59;;;;;;;1.55;1.30;;;17.40;66.10;;;;;;5014531;28;20049;-64
2021/09/25 10:45:34;;;;;;;1.70;1.60;;;17.40;66.00;;;;;;5016588;28;20018;-64
2021/09/25 10:48:08;;;;;;;4.95;1.42;;;17.40;66.10;;;;;;5019691;28;20473;-64
2021/09/25 10:50:37;;;;;;;1.15;1.15;;;17.50;66.20;;;;;;5017744;28;20010;-64
2021/09/25 10:53:10;;;;;;;1.80;1.50;;;17.40;66.00;;;;;;5027339;28;20029;-64
2021/09/25 10:55:39;;;;;;;1.30;1.17;;;17.40;65.90;;;;;;5023327;28;20029;-64
2021/09/25 10:58:16;;;;;;;2.00;1.80;;;17.40;66.10;;;;;;5024494;28;20071;-64
2021/09/25 11:00:49;;;;;;;2.08;1.42;;;17.40;66.00;;;;;;5006523;28;20108;-64
2021/09/25 11:06:07;;;;;;;3.10;1.73;;;17.40;65.50;;;;;;5011254;28;20072;-64
2021/09/25 11:08:34;;;;;;;2.22;1.73;;;17.40;65.60;;;;;;5026009;28;20018;-64
2021/09/25 11:11:12;;;;;;;3.83;1.77;;;17.40;65.50;;;;;;5016198;28;20116;-64
2021/09/25 11:14:05;;;;;;;1.60;1.50;;;17.40;65.70;;;;;;5024793;28;20076;-64
2021/09/25 11:16:48;;;;;;;2.63;1.60;;;17.40;65.80;;;;;;5031278;28;20332;-64
2021/09/25 11:19:25;;;;;;;1.92;1.58;;;17.40;66.00;;;;;;5023271;28;20385;-64
2021/09/25 11:22:00;;;;;;;1.70;1.40;;;17.50;66.00;;;;;;5031958;28;20026;-64
2021/09/25 11:24:27;;;;;;;2.00;1.88;;;17.50;66.40;;;;;;5021077;28;20430;-64
2021/09/25 11:26:53;;;;;;;3.22;1.60;;;17.50;65.60;;;;;;5024305;28;20022;-64
2021/09/25 11:29:19;;;;;;;2.03;1.70;;;17.50;65.50;;;;;;5018875;28;20029;-64
2021/09/25 11:31:49;;;;;;;2.53;1.88;;;17.50;65.30;;;;;;5025492;28;20032;-64
2021/09/25 11:34:24;;;;;;;2.47;1.83;;;17.50;65.40;;;;;;5020087;28;20461;-64
2021/09/25 11:37:01;;;;;;;2.70;2.20;;;17.50;65.40;;;;;;5017078;28;20030;-64
2021/09/25 11:39:44;;;;;;;2.88;1.70;;;17.50;65.30;;;;;;5018687;28;20284;-64
2021/09/25 11:42:20;;;;;;;1.50;1.40;;;17.50;65.20;;;;;;5015030;28;20026;-64
2021/09/25 11:45:03;;;;;;;1.60;1.50;;;17.50;65.30;;;;;;5021143;28;20052;-64
2021/09/25 11:47:30;;;;;;;1.88;1.63;;;17.50;65.40;;;;;;5023295;28;20032;-64
2021/09/25 11:50:00;;;;;;;2.58;1.42;;;17.50;65.20;;;;;;5017440;28;20022;-64
2021/09/25 11:52:27;;;;;;;2.38;1.65;;;17.50;64.90;;;;;;5014801;28;20037;-64
2021/09/25 11:54:54;;;;;;;2.78;2.30;;;17.50;64.70;;;;;;5018955;28;20037;-64
2021/09/25 11:57:24;;;;;;;3.05;1.77;;;17.50;64.70;;;;;;5024680;28;20028;-64
2021/09/25 11:59:50;;;;;;;1.50;1.42;;;17.50;64.90;;;;;;5018777;28;20028;-64
2021/09/25 12:02:39;;;;;;;1.63;1.25;;;17.40;64.90;;;;;;5014819;28;20029;-64
2021/09/25 12:05:07;;;;;;;2.67;1.80;;;17.50;65.00;;;;;;5028337;28;20021;-64
2021/09/25 12:07:40;;;;;;;1.80;1.70;;;17.50;65.50;;;;;;5026100;28;20021;-64
2021/09/25 12:10:06;;;;;;;1.50;1.33;;;17.50;64.90;;;;;;5008170;28;20026;-64
2021/09/25 12:12:33;;;;;;;1.58;1.38;;;17.40;64.70;;;;;;5014724;28;20045;-64
2021/09/25 12:14:59;;;;;;;1.92;1.80;;;17.40;64.90;;;;;;5027213;28;20045;-64
2021/09/25 12:17:26;;;;;;;3.63;1.63;;;17.40;65.00;;;;;;5021936;28;20029;-64
2021/09/25 12:19:51;;;;;;;2.22;2.00;;;17.50;65.30;;;;;;5019014;28;20041;-64
2021/09/25 12:22:28;;;;;;;2.03;1.70;;;17.50;65.20;;;;;;5014464;28;20541;-64
2021/09/25 12:24:55;;;;;;;1.83;1.73;;;17.50;65.00;;;;;;5019549;28;20034;-64
2021/09/25 12:27:28;;;;;;;3.80;2.20;;;17.60;65.40;;;;;;5023770;28;20021;-64
2021/09/25 12:29:54;;;;;;;2.03;1.33;;;17.60;65.10;;;;;;5016554;28;20029;-64
2021/09/25 12:32:21;;;;;;;1.65;1.55;;;17.70;65.20;;;;;;5013615;28;20041;-65
2021/09/25 12:34:50;;;;;;;1.70;1.60;;;17.70;65.00;;;;;;5023716;28;20018;-64
2021/09/25 12:37:17;;;;;;;1.65;1.33;;;17.70;65.00;;;;;;5018641;28;20029;-64
2021/09/25 12:39:44;;;;;;;2.10;1.65;;;17.80;65.10;;;;;;5018634;28;20068;-64
2021/09/25 12:42:22;;;;;;;3.35;1.83;;;17.80;64.70;;;;;;5012854;28;20030;-64
2021/09/25 12:44:51;;;;;;;1.60;1.30;;;17.80;64.70;;;;;;5025415;28;20018;-64
2021/09/25 12:47:29;;;;;;;1.55;1.40;;;17.90;65.00;;;;;;5022731;28;20025;-64
2021/09/25 12:50:29;;;;;;;1.55;1.25;;;17.90;64.60;;;;;;5017242;28;20029;-64
2021/09/25 12:52:58;;;;;;;2.42;1.52;;;17.90;64.60;;;;;;5015447;28;20022;-64